PH-0101 weather

Paniqui Airstrip
Paniqui, Tarlac Province, Philippines

Public forecast

Using degrees Celsius for public forecast. Weather courtesy of forecast.io.

METAR (pilot weather report)

Closest report is Diosdado Macapagal International Airport, 29.4 nm (54.4 km) S. Retrieved 2019/07/21 20:00 UTC (13 minutes ago):

RPLC 212000Z 27002KT 7000 SCT020 BKN300 25/24 Q1009 NOSIG RMK A2980

TAF (pilot weather forecast)

Closest forecast is Diosdado Macapagal International Airport, 29.4 nm (54.4 km) S. Retrieved 2019/07/21 18:03 UTC (2 hours ago):

TAF RPLC 211700Z 2118/2224 32006KT 7000 SCT020 BKN100 TX31/2206Z TN25/2121Z TEMPO 2118/2124 22005KT 5000 HZ SCT020 OVC100